createdAt,value
2018-01-15T00:01:08.610Z,95378.20
2018-01-15T00:03:36.093Z,95376.90
2018-01-15T00:06:03.647Z,95376.39
2018-01-15T00:08:31.939Z,95374.65
2018-01-15T00:10:59.764Z,95378.39
2018-01-15T00:13:27.248Z,95381.30
2018-01-15T00:15:54.903Z,95381.19
2018-01-15T00:18:22.454Z,95379.05
2018-01-15T00:20:50.011Z,95392.20
2018-01-15T00:23:17.839Z,95384.48
2018-01-15T00:25:45.397Z,95391.25
2018-01-15T00:28:13.003Z,95390.81
2018-01-15T00:30:40.595Z,95396.75
2018-01-15T00:33:08.160Z,95395.80
2018-01-15T00:35:35.715Z,95394.13
2018-01-15T00:38:03.259Z,95397.94
2018-01-15T00:40:30.848Z,95392.39
2018-01-15T00:42:58.326Z,95390.22
2018-01-15T00:45:25.880Z,95386.78
2018-01-15T00:47:53.443Z,95388.94
2018-01-15T00:50:20.921Z,95387.22
2018-01-15T00:52:48.944Z,95380.84
2018-01-15T00:55:16.520Z,95379.09
2018-01-15T00:57:44.100Z,95370.45
2018-01-15T01:00:11.647Z,95385.80
2018-01-15T01:02:39.270Z,95391.73
2018-01-15T01:05:06.833Z,95396.34
2018-01-15T01:07:34.317Z,95399.31
2018-01-15T01:10:01.877Z,95398.89
2018-01-15T01:12:29.427Z,95399.31
2018-01-15T01:14:56.978Z,95400.14
2018-01-15T01:17:24.543Z,95392.91
2018-01-15T01:19:57.744Z,95399.28
2018-01-15T01:22:25.317Z,95397.17
2018-01-15T01:24:52.838Z,95389.66
2018-01-15T01:27:20.416Z,95387.19
2018-01-15T01:29:47.955Z,95374.87
2018-01-15T01:32:15.503Z,95365.64
2018-01-15T01:34:43.003Z,95364.86
2018-01-15T01:37:10.481Z,95368.28
2018-01-15T01:39:38.065Z,95362.78
2018-01-15T01:42:05.620Z,95354.75
2018-01-15T01:44:33.174Z,95353.94
2018-01-15T01:47:00.738Z,95348.12
2018-01-15T01:49:28.290Z,95346.28
2018-01-15T01:51:55.895Z,95351.03
2018-01-15T01:54:23.462Z,95350.23
2018-01-15T01:56:50.960Z,95345.93
2018-01-15T01:59:18.512Z,95347.64
2018-01-15T02:01:46.071Z,95343.43
2018-01-15T02:04:13.574Z,95345.87
2018-01-15T02:06:41.131Z,95345.42
2018-01-15T02:09:08.621Z,95349.70
2018-01-15T02:11:36.171Z,95336.05
2018-01-15T02:14:03.791Z,95332.66
2018-01-15T02:16:31.347Z,95335.98
2018-01-15T02:18:58.893Z,95327.02
2018-01-15T02:21:26.447Z,95332.12
2018-01-15T02:23:53.927Z,95327.00
2018-01-15T02:26:21.478Z,95326.88
2018-01-15T02:28:49.037Z,95327.00
2018-01-15T02:31:16.619Z,95333.43
2018-01-15T02:33:44.176Z,95333.52
2018-01-15T02:36:11.736Z,95328.44
2018-01-15T02:38:39.307Z,95336.16
2018-01-15T02:41:07.324Z,95334.14
2018-01-15T02:43:34.894Z,95336.75
2018-01-15T02:46:02.472Z,95335.56
2018-01-15T02:48:29.979Z,95332.59
2018-01-15T02:50:57.530Z,95339.06
2018-01-15T02:53:25.007Z,95342.98
2018-01-15T02:55:52.571Z,95311.50
2018-01-15T02:58:20.117Z,95332.30
2018-01-15T03:00:47.661Z,95334.84
2018-01-15T03:03:15.232Z,95333.95
2018-01-15T03:05:42.787Z,95336.06
2018-01-15T03:08:10.336Z,95327.48
2018-01-15T03:10:37.854Z,95332.17
2018-01-15T03:13:05.407Z,95333.19
2018-01-15T03:15:32.971Z,95331.94
2018-01-15T03:18:00.540Z,95339.16
2018-01-15T03:20:28.108Z,95331.13
2018-01-15T03:22:55.690Z,95331.55
2018-01-15T03:25:23.169Z,95332.55
2018-01-15T03:27:50.657Z,95336.53
2018-01-15T03:30:18.225Z,95331.84
2018-01-15T03:32:45.710Z,95336.00
2018-01-15T03:35:13.300Z,95329.50
2018-01-15T03:37:40.856Z,95331.94
2018-01-15T03:40:08.400Z,95333.55
2018-01-15T03:42:35.898Z,95328.73
2018-01-15T03:45:03.384Z,95329.16
2018-01-15T03:47:30.945Z,95330.99
2018-01-15T03:49:58.507Z,95331.13
2018-01-15T03:52:26.072Z,95336.20
2018-01-15T03:54:53.556Z,95335.59
2018-01-15T03:57:21.033Z,95331.70
2018-01-15T03:59:48.579Z,95331.17
2018-01-15T04:02:16.158Z,95340.52
2018-01-15T04:04:43.637Z,95339.60
2018-01-15T04:07:11.196Z,95337.02
2018-01-15T04:09:38.683Z,95345.51
2018-01-15T04:12:06.166Z,95348.48
2018-01-15T04:14:33.655Z,95342.13
2018-01-15T04:17:01.154Z,95343.84
2018-01-15T04:19:28.708Z,95350.31
2018-01-15T04:21:56.213Z,95343.48
2018-01-15T04:24:25.128Z,95345.63
2018-01-15T04:26:52.702Z,95349.81
2018-01-15T04:29:20.291Z,95346.84
2018-01-15T04:31:47.995Z,95353.64
2018-01-15T04:34:15.560Z,95359.84
2018-01-15T04:36:43.159Z,95363.47
2018-01-15T04:39:10.716Z,95363.30
2018-01-15T04:41:38.266Z,95363.48
2018-01-15T04:44:05.767Z,95363.98
2018-01-15T04:46:33.274Z,95361.84
2018-01-15T04:49:00.752Z,95361.91
2018-01-15T04:51:28.306Z,95362.70
2018-01-15T04:53:55.824Z,95362.83
2018-01-15T04:56:23.391Z,95356.00
2018-01-15T04:58:50.874Z,95355.25
2018-01-15T05:01:18.431Z,95352.46
2018-01-15T05:03:45.917Z,95345.00
2018-01-15T05:06:13.459Z,95350.14
2018-01-15T05:08:41.015Z,95360.88
2018-01-15T05:11:08.537Z,95360.55
2018-01-15T05:13:36.025Z,95364.89
2018-01-15T05:16:03.574Z,95369.60
2018-01-15T05:18:31.136Z,95373.40
2018-01-15T05:20:58.623Z,95374.27
2018-01-15T05:23:26.188Z,95380.25
2018-01-15T05:25:53.693Z,95376.04
2018-01-15T05:28:21.271Z,95373.87
2018-01-15T05:30:48.749Z,95381.50
2018-01-15T05:33:16.273Z,95377.26
2018-01-15T05:35:43.773Z,95378.50
2018-01-15T05:38:11.253Z,95380.14
2018-01-15T05:40:38.863Z,95382.19
2018-01-15T05:43:06.402Z,95387.63
2018-01-15T05:45:33.977Z,95391.04
2018-01-15T05:48:01.477Z,95384.86
2018-01-15T05:50:29.039Z,95398.50
2018-01-15T05:52:56.604Z,95395.13
2018-01-15T05:55:24.171Z,95403.73
2018-01-15T05:57:51.823Z,95388.44
2018-01-15T06:00:19.301Z,95400.93
2018-01-15T06:02:46.922Z,95402.26
2018-01-15T06:05:14.401Z,95401.19
2018-01-15T06:07:41.950Z,95405.40
2018-01-15T06:10:09.499Z,95399.05
2018-01-15T06:12:37.042Z,95399.52
2018-01-15T06:15:04.610Z,95402.07
2018-01-15T06:17:32.098Z,95399.99
2018-01-15T06:19:59.618Z,95399.16
2018-01-15T06:22:27.204Z,95400.46
2018-01-15T06:24:54.775Z,95394.50
2018-01-15T06:27:22.339Z,95404.70
2018-01-15T06:29:49.923Z,95400.88
2018-01-15T06:32:17.512Z,95402.16
2018-01-15T06:34:45.058Z,95408.95
2018-01-15T06:37:12.619Z,95408.09
2018-01-15T06:39:40.183Z,95408.00
2018-01-15T06:42:07.740Z,95407.48
2018-01-15T06:44:35.338Z,95414.16
2018-01-15T06:47:02.897Z,95419.59
2018-01-15T06:49:30.438Z,95416.12
2018-01-15T06:51:57.992Z,95421.38
2018-01-15T06:54:25.553Z,95427.42
2018-01-15T06:56:53.116Z,95424.06
2018-01-15T06:59:20.617Z,95426.67
2018-01-15T07:01:48.200Z,95430.97
2018-01-15T07:04:15.769Z,95433.52
2018-01-15T07:06:43.344Z,95435.74
2018-01-15T07:09:10.903Z,95431.08
2018-01-15T07:11:38.381Z,95425.56
2018-01-15T07:14:05.869Z,95429.05
2018-01-15T07:16:33.345Z,95432.89
2018-01-15T07:19:00.821Z,95434.61
2018-01-15T07:21:28.304Z,95432.11
2018-01-15T07:23:55.874Z,95420.57
2018-01-15T07:26:23.433Z,95420.19
2018-01-15T07:28:50.993Z,95430.78
2018-01-15T07:31:18.662Z,95428.20
2018-01-15T07:33:46.145Z,95437.94
2018-01-15T07:36:13.637Z,95432.30
2018-01-15T07:38:41.212Z,95434.77
2018-01-15T07:41:08.847Z,95431.69
2018-01-15T07:43:36.622Z,95442.20
2018-01-15T07:46:04.214Z,95445.95
2018-01-15T07:48:31.828Z,95449.66
2018-01-15T07:50:59.427Z,95447.44
2018-01-15T07:53:26.987Z,95447.20
2018-01-15T07:55:54.548Z,95453.25
2018-01-15T07:58:22.090Z,95447.86
2018-01-15T08:00:49.586Z,95454.22
2018-01-15T08:03:17.145Z,95458.98
2018-01-15T08:05:44.687Z,95449.80
2018-01-15T08:08:12.246Z,95456.55
2018-01-15T08:10:39.799Z,95454.05
2018-01-15T08:13:07.319Z,95451.66
2018-01-15T08:15:34.943Z,95451.36
2018-01-15T08:18:02.532Z,95448.50
2018-01-15T08:20:30.220Z,95448.20
2018-01-15T08:22:57.761Z,95446.36
2018-01-15T08:25:25.333Z,95444.56
2018-01-15T08:27:52.816Z,95452.00
2018-01-15T08:30:20.375Z,95451.83
2018-01-15T08:32:48.012Z,95436.41
2018-01-15T08:35:15.602Z,95448.20
2018-01-15T08:37:43.156Z,95444.06
2018-01-15T08:40:10.633Z,95442.52
2018-01-15T08:42:38.252Z,95445.17
2018-01-15T08:45:05.838Z,95438.16
2018-01-15T08:47:33.397Z,95452.13
2018-01-15T08:50:00.974Z,95448.81
2018-01-15T08:52:28.551Z,95442.87
2018-01-15T08:54:56.110Z,95447.22
2018-01-15T08:57:23.686Z,95445.56
2018-01-15T08:59:51.252Z,95449.33
2018-01-15T09:02:18.816Z,95453.21
2018-01-15T09:04:46.395Z,95448.92
2018-01-15T09:07:13.919Z,95445.09
2018-01-15T09:09:41.475Z,95448.42
2018-01-15T09:12:09.055Z,95448.81
2018-01-15T09:14:36.563Z,95442.84
2018-01-15T09:17:04.082Z,95441.92
2018-01-15T09:19:31.645Z,95435.19
2018-01-15T09:21:59.241Z,95441.92
2018-01-15T09:24:26.730Z,95444.42
2018-01-15T09:26:54.209Z,95440.95
2018-01-15T09:29:21.701Z,95433.27
2018-01-15T09:31:49.187Z,95430.97
2018-01-15T09:34:16.754Z,95428.00
2018-01-15T09:36:44.238Z,95421.88
2018-01-15T09:39:11.844Z,95420.87
2018-01-15T09:41:39.407Z,95419.95
2018-01-15T09:44:06.973Z,95409.61
2018-01-15T09:46:34.462Z,95415.87
2018-01-15T09:49:02.011Z,95420.00
2018-01-15T09:51:29.574Z,95410.92
2018-01-15T09:53:57.059Z,95418.47
2018-01-15T09:56:24.649Z,95400.84
2018-01-15T09:58:52.161Z,95391.85
2018-01-15T10:01:19.728Z,95393.44
2018-01-15T10:03:47.278Z,95393.34
2018-01-15T10:06:14.875Z,95397.62
2018-01-15T10:08:42.448Z,95398.18
2018-01-15T10:11:09.998Z,95396.59
2018-01-15T10:13:37.531Z,95400.19
2018-01-15T10:16:05.111Z,95393.09
2018-01-15T10:18:32.667Z,95390.18
2018-01-15T10:21:00.141Z,95385.96
2018-01-15T10:23:27.697Z,95382.58
2018-01-15T10:25:55.313Z,95382.64
2018-01-15T10:28:22.868Z,95379.25
2018-01-15T10:30:50.374Z,95376.67
2018-01-15T10:33:17.867Z,95376.16
2018-01-15T10:35:45.348Z,95376.14
2018-01-15T10:38:12.912Z,95371.36
2018-01-15T10:40:40.487Z,95367.45
2018-01-15T10:43:08.037Z,95375.08
2018-01-15T10:45:35.580Z,95367.30
2018-01-15T10:48:03.162Z,95369.35
2018-01-15T10:50:30.724Z,95367.19
2018-01-15T10:52:58.271Z,95358.55
2018-01-15T10:55:25.879Z,95359.30
2018-01-15T10:57:53.460Z,95349.83
2018-01-15T11:00:26.602Z,95350.78
2018-01-15T11:02:54.214Z,95347.53
2018-01-15T11:05:21.790Z,95346.44
2018-01-15T11:07:49.359Z,95344.42
2018-01-15T11:10:16.911Z,95346.67
2018-01-15T11:12:44.468Z,95341.59
2018-01-15T11:15:12.083Z,95330.11
2018-01-15T11:17:39.643Z,95330.14
2018-01-15T11:20:07.190Z,95322.95
2018-01-15T11:22:34.745Z,95319.16
2018-01-15T11:25:02.339Z,95318.71
2018-01-15T11:27:29.878Z,95314.94
2018-01-15T11:29:57.479Z,95311.94
2018-01-15T11:32:25.048Z,95311.53
2018-01-15T11:34:52.624Z,95303.01
2018-01-15T11:37:20.234Z,95308.12
2018-01-15T11:39:47.811Z,95303.42
2018-01-15T11:42:15.350Z,95298.71
2018-01-15T11:44:43.010Z,95291.83
2018-01-15T11:47:10.588Z,95293.42
2018-01-15T11:49:38.188Z,95283.09
2018-01-15T11:52:05.768Z,95285.65
2018-01-15T11:54:33.336Z,95283.28
2018-01-15T11:57:00.969Z,95281.28
2018-01-15T11:59:28.552Z,95289.48
2018-01-15T12:01:56.209Z,95288.73
2018-01-15T12:04:23.820Z,95287.48
2018-01-15T12:06:51.390Z,95285.83
2018-01-15T12:09:19.007Z,95274.34
2018-01-15T12:11:46.567Z,95274.75
2018-01-15T12:14:14.155Z,95274.84
2018-01-15T12:16:41.773Z,95273.54
2018-01-15T12:19:09.381Z,95273.45
2018-01-15T12:21:37.015Z,95263.69
2018-01-15T12:24:04.577Z,95265.77
2018-01-15T12:26:32.148Z,95265.29
2018-01-15T12:28:59.775Z,95256.75
2018-01-15T12:31:27.363Z,95253.75
2018-01-15T12:33:54.993Z,95253.66
2018-01-15T12:36:22.569Z,95244.72
2018-01-15T12:38:50.185Z,95247.19
2018-01-15T12:41:17.795Z,95252.67
2018-01-15T12:43:45.358Z,95254.07
2018-01-15T12:46:12.916Z,95262.70
2018-01-15T12:48:40.397Z,95258.58
2018-01-15T12:51:07.966Z,95256.56
2018-01-15T12:53:35.518Z,95245.17
2018-01-15T12:56:03.172Z,95244.78
2018-01-15T12:58:30.748Z,95242.23
2018-01-15T13:00:58.312Z,95235.05
2018-01-15T13:03:25.864Z,95231.97
2018-01-15T13:05:53.450Z,95234.13
2018-01-15T13:08:28.823Z,95225.94
2018-01-15T13:10:56.393Z,95226.36
2018-01-15T13:13:23.956Z,95235.73
2018-01-15T13:15:51.446Z,95231.49
2018-01-15T13:18:18.963Z,95236.21
2018-01-15T13:20:46.548Z,95234.52
2018-01-15T13:23:14.100Z,95227.30
2018-01-15T13:25:41.662Z,95224.75
2018-01-15T13:28:09.195Z,95229.41
2018-01-15T13:30:36.736Z,95221.64
2018-01-15T13:33:04.295Z,95215.20
2018-01-15T13:35:31.779Z,95215.08
2018-01-15T13:37:59.365Z,95207.80
2018-01-15T13:40:26.936Z,95210.92
2018-01-15T13:42:54.519Z,95212.34
2018-01-15T13:45:22.086Z,95194.58
2018-01-15T13:47:49.565Z,95191.73
2018-01-15T13:50:17.120Z,95195.67
2018-01-15T13:52:44.672Z,95198.71
2018-01-15T13:55:12.240Z,95199.18
2018-01-15T13:57:39.828Z,95196.22
2018-01-15T14:00:07.386Z,95193.48
2018-01-15T14:02:34.945Z,95191.23
2018-01-15T14:05:02.479Z,95189.55
2018-01-15T14:07:30.048Z,95181.95
2018-01-15T14:09:57.642Z,95188.33
2018-01-15T14:12:25.130Z,95187.49
2018-01-15T14:14:52.687Z,95190.05
2018-01-15T14:17:20.178Z,95193.02
2018-01-15T14:19:47.738Z,95181.86
2018-01-15T14:22:15.316Z,95158.22
2018-01-15T14:24:42.806Z,95180.08
2018-01-15T14:27:10.362Z,95180.05
2018-01-15T14:29:37.917Z,95175.68
2018-01-15T14:32:05.422Z,95170.97
2018-01-15T14:34:32.974Z,95166.59
2018-01-15T14:37:00.528Z,95168.02
2018-01-15T14:39:28.125Z,95171.63
2018-01-15T14:41:55.752Z,95164.53
2018-01-15T14:44:23.297Z,95161.81
2018-01-15T14:46:50.859Z,95168.09
2018-01-15T14:49:18.414Z,95174.15
2018-01-15T14:51:46.012Z,95177.63
2018-01-15T14:54:13.627Z,95178.09
2018-01-15T14:56:41.238Z,95163.73
2018-01-15T14:59:08.806Z,95159.94
2018-01-15T15:01:36.361Z,95161.63
2018-01-15T15:04:03.936Z,95165.40
2018-01-15T15:06:31.437Z,95162.02
2018-01-15T15:08:58.962Z,95156.95
2018-01-15T15:11:26.548Z,95144.25
2018-01-15T15:13:54.124Z,95143.77
2018-01-15T15:16:21.909Z,95153.44
2018-01-15T15:18:49.401Z,95149.14
2018-01-15T15:21:16.877Z,95147.36
2018-01-15T15:23:44.357Z,95143.47
2018-01-15T15:26:11.951Z,95141.66
2018-01-15T15:28:39.512Z,95138.63
2018-01-15T15:31:06.995Z,95129.97
2018-01-15T15:33:34.540Z,95126.91
2018-01-15T15:36:02.106Z,95131.56
2018-01-15T15:38:29.690Z,95129.23
2018-01-15T15:40:57.178Z,95134.87
2018-01-15T15:43:24.766Z,95138.81
2018-01-15T15:45:52.279Z,95141.84
2018-01-15T15:48:19.858Z,95140.75
2018-01-15T15:50:47.337Z,95136.59
2018-01-15T15:53:14.896Z,95141.73
2018-01-15T15:55:42.496Z,95140.96
2018-01-15T15:58:10.076Z,95130.41
2018-01-15T16:00:37.695Z,95127.94
2018-01-15T16:03:05.234Z,95129.55
2018-01-15T16:05:32.835Z,95123.26
2018-01-15T16:08:00.396Z,95122.75
2018-01-15T16:10:27.942Z,95119.75
2018-01-15T16:12:55.499Z,95115.03
2018-01-15T16:15:23.070Z,95113.70
2018-01-15T16:17:50.654Z,95097.95
2018-01-15T16:20:18.142Z,95101.33
2018-01-15T16:22:58.509Z,95107.17
2018-01-15T16:25:26.068Z,95106.95
2018-01-15T16:27:53.635Z,95106.83
2018-01-15T16:30:21.137Z,95107.22
2018-01-15T16:32:48.717Z,95095.45
2018-01-15T16:35:16.198Z,95109.69
2018-01-15T16:37:43.768Z,95103.08
2018-01-15T16:40:11.386Z,95112.39
2018-01-15T16:42:38.885Z,95106.84
2018-01-15T16:45:06.569Z,95104.83
2018-01-15T16:47:34.229Z,95113.82
2018-01-15T16:50:18.455Z,95105.52
2018-01-15T16:52:46.012Z,95096.15
2018-01-15T16:55:13.574Z,95093.27
2018-01-15T16:57:41.146Z,95086.61
2018-01-15T17:00:08.730Z,95094.67
2018-01-15T17:02:36.303Z,95092.59
2018-01-15T17:05:03.850Z,95090.46
2018-01-15T17:07:31.452Z,95082.05
2018-01-15T17:09:59.035Z,95081.62
2018-01-15T17:12:26.625Z,95080.67
2018-01-15T17:14:54.202Z,95082.24
2018-01-15T17:17:22.443Z,95071.05
2018-01-15T17:19:50.012Z,95071.28
2018-01-15T17:22:17.912Z,95058.06
2018-01-15T17:24:45.481Z,95052.48
2018-01-15T17:27:12.969Z,95058.06
2018-01-15T17:29:40.555Z,95063.22
2018-01-15T17:32:08.183Z,95060.99
2018-01-15T17:34:35.683Z,95063.84
2018-01-15T17:37:06.756Z,95067.86
2018-01-15T17:39:42.847Z,94933.95
2018-01-15T17:42:10.359Z,95067.48
2018-01-15T17:44:37.939Z,95065.00
2018-01-15T17:47:05.492Z,95065.77
2018-01-15T17:49:33.045Z,95056.80
2018-01-15T17:52:00.624Z,95049.89
2018-01-15T17:54:45.712Z,95044.78
2018-01-15T17:57:19.664Z,95054.06
2018-01-15T18:42:25.071Z,95020.02
2018-01-15T18:44:55.396Z,95016.84
2018-01-15T18:47:22.979Z,95011.55
2018-01-15T18:49:50.561Z,95007.95
2018-01-15T18:52:18.142Z,95021.73
2018-01-15T18:54:45.744Z,95012.12
2018-01-15T18:57:13.280Z,95005.39
2018-01-15T18:59:40.774Z,95012.22
2018-01-15T19:02:24.034Z,95002.99
2018-01-15T19:04:54.446Z,95007.97
2018-01-15T19:07:22.072Z,95006.95
2018-01-15T19:09:49.644Z,95012.02
2018-01-15T19:12:26.593Z,95022.74
2018-01-15T19:15:01.864Z,95019.67
2018-01-15T19:17:29.808Z,95011.06
2018-01-15T19:19:57.403Z,95005.12
2018-01-15T19:22:24.992Z,95001.52
2018-01-15T19:24:52.970Z,95003.76
2018-01-15T19:27:20.597Z,95009.86
2018-01-15T19:29:48.153Z,95003.80
2018-01-15T19:32:15.666Z,95002.90
2018-01-15T19:37:48.833Z,94997.66
2018-01-15T19:40:16.443Z,94991.19
2018-01-15T19:42:43.976Z,94997.84
2018-01-15T19:45:17.149Z,95003.59
2018-01-15T19:47:50.306Z,95003.27
2018-01-15T19:50:23.574Z,94997.13
2018-01-15T19:52:56.590Z,94997.86
2018-01-15T19:55:30.422Z,95002.11
2018-01-15T19:58:04.377Z,95008.94
2018-01-15T20:00:37.627Z,95022.63
2018-01-15T20:03:10.940Z,95023.59
2018-01-15T20:05:44.197Z,95022.34
2018-01-15T20:08:17.310Z,95023.34
2018-01-15T20:10:59.676Z,95022.67
2018-01-15T20:13:27.263Z,95022.80
2018-01-15T20:15:54.765Z,95016.90
2018-01-15T20:18:22.373Z,95005.83
2018-01-15T20:20:49.983Z,94981.61
2018-01-15T20:23:17.569Z,94983.77
2018-01-15T20:25:45.105Z,94978.25
2018-01-15T20:28:12.715Z,94983.84
2018-01-15T20:30:40.330Z,94971.08
2018-01-15T20:33:07.955Z,94983.05
2018-01-15T20:35:35.535Z,94980.39
2018-01-15T20:38:03.102Z,94974.88
2018-01-15T20:40:31.013Z,94979.56
2018-01-15T20:42:58.679Z,94978.70
2018-01-15T20:45:26.203Z,94969.36
2018-01-15T20:47:53.903Z,94979.12
2018-01-15T20:50:21.484Z,94970.13
2018-01-15T20:52:49.037Z,94976.47
2018-01-15T20:55:16.636Z,94971.36
2018-01-15T20:57:44.141Z,94976.84
2018-01-15T21:00:12.840Z,94968.67
2018-01-15T21:02:40.676Z,94964.95
2018-01-15T21:05:08.274Z,94963.36
2018-01-15T21:07:35.926Z,94969.45
2018-01-15T21:10:03.548Z,94979.38
2018-01-15T21:12:31.634Z,94975.36
2018-01-15T21:14:59.251Z,94978.94
2018-01-15T21:17:26.766Z,94979.13
2018-01-15T21:19:54.290Z,94970.78
2018-01-15T21:22:21.880Z,94967.08
2018-01-15T21:24:49.394Z,94959.55
2018-01-15T21:27:16.983Z,94960.09
2018-01-15T21:29:44.574Z,94961.47
2018-01-15T21:32:13.413Z,94962.40
2018-01-15T21:34:41.001Z,94947.63
2018-01-15T21:37:09.664Z,94945.20
2018-01-15T21:39:37.240Z,94931.78
2018-01-15T21:42:04.829Z,94936.22
2018-01-15T21:44:35.099Z,94935.80
2018-01-15T21:47:05.295Z,94928.12
2018-01-15T21:49:32.901Z,94929.81
2018-01-15T21:52:00.430Z,94917.63
2018-01-15T21:54:27.970Z,94933.37
2018-01-15T21:56:57.780Z,94934.08
2018-01-15T22:04:43.931Z,94942.17
2018-01-15T22:07:17.296Z,94941.99
2018-01-15T22:09:45.567Z,94946.36
2018-01-15T22:12:13.415Z,94932.81
2018-01-15T22:14:40.979Z,94932.11
2018-01-15T22:17:08.487Z,94916.13
2018-01-15T22:19:36.002Z,94902.27
2018-01-15T22:22:03.632Z,94904.91
2018-01-15T22:24:31.245Z,94908.33
2018-01-15T22:26:58.786Z,94905.01
2018-01-15T22:29:26.326Z,94904.95
2018-01-15T22:31:53.896Z,94895.57
2018-01-15T22:34:21.463Z,94890.02
2018-01-15T22:36:49.149Z,94900.64
2018-01-15T22:39:16.999Z,94889.95
2018-01-15T22:41:44.591Z,94888.20
2018-01-15T22:44:12.157Z,94873.73
2018-01-15T22:46:39.801Z,94864.67
2018-01-15T22:49:07.372Z,94860.89
2018-01-15T22:51:34.993Z,94863.70
2018-01-15T22:54:02.504Z,94855.95
2018-01-15T22:56:30.098Z,94841.80
2018-01-15T22:58:57.606Z,94850.63
2018-01-15T23:01:25.252Z,94845.45
2018-01-15T23:03:52.785Z,94841.63
2018-01-15T23:06:20.305Z,94840.97
2018-01-15T23:08:47.834Z,94835.16
2018-01-15T23:14:06.335Z,94821.47
2018-01-15T23:16:33.915Z,94824.56
2018-01-15T23:19:01.414Z,94836.08
2018-01-15T23:21:28.922Z,94830.63
2018-01-15T23:23:56.505Z,94827.66
2018-01-15T23:26:24.018Z,94833.66
2018-01-15T23:28:51.555Z,94834.90
2018-01-15T23:31:19.198Z,94828.84
2018-01-15T23:33:46.761Z,94830.94
2018-01-15T23:36:14.349Z,94819.81
2018-01-15T23:38:41.867Z,94818.53
2018-01-15T23:41:09.448Z,94817.98
2018-01-15T23:43:36.970Z,94818.78
2018-01-15T23:46:04.541Z,94811.95
2018-01-15T23:48:47.085Z,94808.03
2018-01-15T23:51:14.664Z,94805.45
2018-01-15T23:53:42.202Z,94810.93
2018-01-15T23:56:09.793Z,94812.63
2018-01-15T23:58:50.693Z,94810.45
